createdAt,value
2023-10-10T00:01:47.058Z,93.35
2023-10-10T00:04:14.146Z,93.80
2023-10-10T00:06:41.926Z,93.44
2023-10-10T00:09:13.187Z,93.50
2023-10-10T00:11:42.239Z,93.44
2023-10-10T00:14:19.353Z,93.45
2023-10-10T00:16:56.381Z,92.69
2023-10-10T00:19:26.148Z,92.12
2023-10-10T00:21:53.156Z,91.93
2023-10-10T00:24:31.875Z,92.37
2023-10-10T00:27:14.478Z,91.74
2023-10-10T00:29:45.353Z,91.51
2023-10-10T00:32:24.327Z,91.09
2023-10-10T00:34:52.273Z,90.90
2023-10-10T00:37:27.358Z,91.24
2023-10-10T00:39:54.332Z,91.29
2023-10-10T00:42:29.100Z,90.95
2023-10-10T00:44:56.016Z,90.65
2023-10-10T00:47:26.485Z,90.83
2023-10-10T00:49:54.421Z,90.45
2023-10-10T00:52:22.043Z,90.46
2023-10-10T00:54:51.228Z,90.42
2023-10-10T00:57:23.106Z,90.37
2023-10-10T00:59:56.029Z,90.28
2023-10-10T01:02:24.197Z,90.60
2023-10-10T01:04:56.897Z,90.62
2023-10-10T01:07:26.842Z,90.49
2023-10-10T01:09:58.098Z,90.54
2023-10-10T01:12:27.365Z,90.23
2023-10-10T01:14:56.244Z,90.18
2023-10-10T01:17:31.211Z,90.46
2023-10-10T01:20:22.138Z,90.52
2023-10-10T01:22:50.235Z,90.04
2023-10-10T01:25:36.141Z,90.20
2023-10-10T01:28:07.188Z,90.00
2023-10-10T01:30:52.690Z,90.15
2023-10-10T01:33:24.896Z,90.60
2023-10-10T01:35:57.152Z,90.54
2023-10-10T01:38:57.996Z,90.60
2023-10-10T01:41:32.877Z,90.28
2023-10-10T01:44:20.624Z,90.35
2023-10-10T01:46:48.153Z,90.17
2023-10-10T01:49:17.136Z,90.23
2023-10-10T01:51:45.153Z,90.41
2023-10-10T01:54:35.498Z,90.38
2023-10-10T01:57:07.788Z,90.13
2023-10-10T01:59:40.220Z,90.27
2023-10-10T02:02:11.600Z,90.19
2023-10-10T02:04:40.985Z,89.77
2023-10-10T02:07:15.616Z,89.73
2023-10-10T02:09:44.951Z,89.93
2023-10-10T02:12:17.277Z,89.87
2023-10-10T02:14:44.659Z,90.51
2023-10-10T02:17:30.682Z,90.32
2023-10-10T02:20:26.776Z,90.46
2023-10-10T02:23:14.813Z,90.08
2023-10-10T02:25:47.344Z,90.52
2023-10-10T02:28:17.372Z,90.90
2023-10-10T02:30:47.413Z,90.09
2023-10-10T02:33:21.138Z,89.98
2023-10-10T02:35:55.919Z,90.63
2023-10-10T02:38:41.383Z,90.83
2023-10-10T02:41:36.525Z,90.33
2023-10-10T02:44:03.529Z,90.44
2023-10-10T02:46:37.159Z,90.66
2023-10-10T02:49:31.153Z,90.62
2023-10-10T02:51:58.585Z,90.05
2023-10-10T02:54:28.141Z,90.54
2023-10-10T02:56:59.698Z,90.48
2023-10-10T02:59:34.381Z,90.78
2023-10-10T03:02:09.763Z,90.31
2023-10-10T03:04:55.588Z,90.13
2023-10-10T03:07:30.498Z,90.28
2023-10-10T03:10:08.991Z,90.20
2023-10-10T03:12:39.251Z,90.08
2023-10-10T03:15:15.618Z,89.53
2023-10-10T03:18:02.093Z,90.03
2023-10-10T03:20:32.993Z,90.39
2023-10-10T03:23:07.198Z,90.63
2023-10-10T03:25:48.991Z,90.40
2023-10-10T03:28:21.099Z,90.17
2023-10-10T03:31:11.906Z,90.51
2023-10-10T03:33:46.117Z,90.73
2023-10-10T03:36:15.025Z,90.34
2023-10-10T03:38:49.509Z,89.72
2023-10-10T03:41:36.398Z,90.11
2023-10-10T03:44:21.894Z,90.40
2023-10-10T03:47:01.209Z,90.08
2023-10-10T03:49:48.400Z,89.83
2023-10-10T03:52:34.561Z,90.38
2023-10-10T03:55:20.484Z,90.37
2023-10-10T03:58:05.909Z,90.07
2023-10-10T04:00:51.505Z,90.43
2023-10-10T04:03:36.955Z,89.90
2023-10-10T04:06:23.628Z,90.34
2023-10-10T04:09:09.561Z,90.07
2023-10-10T04:11:55.154Z,90.08
2023-10-10T04:14:40.869Z,90.14
2023-10-10T04:17:26.327Z,90.16
2023-10-10T04:20:12.156Z,90.11
2023-10-10T04:22:57.862Z,90.25
2023-10-10T04:25:43.493Z,90.35
2023-10-10T04:28:29.534Z,90.08
2023-10-10T04:31:15.041Z,90.10
2023-10-10T04:34:00.759Z,90.17
2023-10-10T04:36:46.276Z,89.39
2023-10-10T04:39:31.395Z,90.03
2023-10-10T04:42:16.712Z,89.88
2023-10-10T04:45:02.151Z,90.02
2023-10-10T04:47:47.964Z,89.81
2023-10-10T04:50:33.626Z,89.57
2023-10-10T04:53:19.319Z,89.58
2023-10-10T04:56:04.813Z,89.94
2023-10-10T04:58:50.274Z,90.09
2023-10-10T05:01:35.728Z,89.82
2023-10-10T05:04:21.261Z,89.90
2023-10-10T05:07:06.919Z,89.59
2023-10-10T05:09:54.344Z,89.57
2023-10-10T05:12:40.012Z,89.60
2023-10-10T05:15:26.320Z,89.71
2023-10-10T05:18:11.940Z,89.45
2023-10-10T05:20:59.954Z,89.25
2023-10-10T05:23:36.088Z,89.91
2023-10-10T05:26:07.125Z,89.87
2023-10-10T05:28:34.480Z,89.91
2023-10-10T05:31:04.367Z,89.87
2023-10-10T05:33:32.163Z,89.37
2023-10-10T05:36:00.650Z,89.64
2023-10-10T05:38:27.948Z,89.57
2023-10-10T05:40:55.672Z,90.05
2023-10-10T05:43:28.068Z,89.65
2023-10-10T05:45:55.695Z,90.02
2023-10-10T05:48:23.437Z,89.70
2023-10-10T05:50:50.510Z,89.87
2023-10-10T05:53:18.638Z,89.59
2023-10-10T05:55:54.692Z,89.72
2023-10-10T05:58:24.611Z,90.03
2023-10-10T06:00:51.469Z,90.09
2023-10-10T06:03:18.856Z,89.71
2023-10-10T06:05:46.178Z,89.91
2023-10-10T06:08:16.473Z,89.96
2023-10-10T06:10:43.536Z,89.86
2023-10-10T06:13:12.863Z,90.02
2023-10-10T06:15:40.858Z,90.02
2023-10-10T06:18:13.943Z,90.07
2023-10-10T06:20:54.223Z,89.98
2023-10-10T06:23:27.512Z,90.05
2023-10-10T06:26:01.835Z,90.04
2023-10-10T06:28:30.736Z,89.94
2023-10-10T06:31:01.328Z,90.41
2023-10-10T06:33:31.097Z,90.23
2023-10-10T06:36:24.446Z,90.17
2023-10-10T06:39:06.940Z,90.21
2023-10-10T06:41:40.453Z,89.71
2023-10-10T06:44:19.146Z,90.08
2023-10-10T06:46:50.156Z,90.34
2023-10-10T06:49:17.317Z,90.37
2023-10-10T06:51:44.441Z,90.69
2023-10-10T06:54:28.932Z,90.11
2023-10-10T06:57:02.347Z,90.66
2023-10-10T06:59:30.385Z,90.40
2023-10-10T07:02:14.151Z,91.05
2023-10-10T07:04:42.136Z,91.05
2023-10-10T07:07:10.446Z,91.06
2023-10-10T07:09:43.731Z,91.43
2023-10-10T07:12:11.811Z,91.08
2023-10-10T07:14:45.358Z,91.18
2023-10-10T07:17:13.844Z,91.96
2023-10-10T07:20:03.006Z,92.05
2023-10-10T07:22:35.952Z,92.01
2023-10-10T07:25:18.801Z,92.74
2023-10-10T07:27:46.198Z,93.40
2023-10-10T07:30:19.729Z,92.89
2023-10-10T07:32:50.431Z,93.31
2023-10-10T07:35:18.975Z,93.24
2023-10-10T07:37:46.928Z,92.96
2023-10-10T07:40:17.711Z,93.26
2023-10-10T07:42:51.880Z,93.84
2023-10-10T07:45:29.526Z,94.13
2023-10-10T07:47:59.394Z,94.29
2023-10-10T07:50:36.204Z,94.47
2023-10-10T07:53:08.154Z,94.36
2023-10-10T07:55:54.766Z,94.37
2023-10-10T07:58:51.299Z,95.25
2023-10-10T08:01:20.016Z,94.63
2023-10-10T08:03:48.275Z,95.20
2023-10-10T08:06:23.897Z,95.57
2023-10-10T08:09:19.522Z,95.14
2023-10-10T08:11:47.582Z,95.58
2023-10-10T08:14:15.057Z,95.94
2023-10-10T08:16:44.714Z,95.69
2023-10-10T08:19:16.685Z,95.75
2023-10-10T08:21:53.098Z,94.90
2023-10-10T08:24:21.761Z,95.22
2023-10-10T08:26:52.574Z,95.65
2023-10-10T08:29:24.032Z,95.86
2023-10-10T08:31:53.124Z,95.93
2023-10-10T08:34:29.060Z,96.13
2023-10-10T08:37:04.339Z,95.67
2023-10-10T08:39:36.848Z,95.91
2023-10-10T08:42:12.771Z,96.27
2023-10-10T08:44:42.521Z,96.23
2023-10-10T08:47:20.592Z,96.60
2023-10-10T08:49:49.201Z,96.83
2023-10-10T08:52:21.427Z,96.05
2023-10-10T08:54:49.206Z,96.61
2023-10-10T08:57:25.935Z,96.71
2023-10-10T08:59:53.989Z,97.05
2023-10-10T09:02:21.726Z,97.06
2023-10-10T09:04:52.083Z,97.30
2023-10-10T09:07:24.750Z,97.08
2023-10-10T09:10:07.793Z,96.49
2023-10-10T09:12:49.426Z,96.09
2023-10-10T09:15:18.450Z,96.07
2023-10-10T09:17:47.083Z,95.64
2023-10-10T09:20:24.925Z,95.95
2023-10-10T09:23:18.558Z,96.02
2023-10-10T09:25:50.108Z,96.25
2023-10-10T09:28:20.145Z,96.06
2023-10-10T09:31:11.237Z,95.63
2023-10-10T09:33:44.013Z,95.21
2023-10-10T09:36:11.166Z,95.61
2023-10-10T09:38:45.326Z,95.75
2023-10-10T09:41:34.785Z,95.41
2023-10-10T09:44:24.218Z,95.46
2023-10-10T09:47:10.760Z,95.41
2023-10-10T09:49:48.146Z,95.26
2023-10-10T09:52:34.934Z,95.25
2023-10-10T09:55:15.597Z,94.71
2023-10-10T09:58:07.067Z,95.41
2023-10-10T10:00:39.513Z,94.97
2023-10-10T10:03:27.897Z,94.93
2023-10-10T10:06:06.883Z,94.38
2023-10-10T10:09:16.097Z,94.12
2023-10-10T10:11:58.042Z,93.47
2023-10-10T10:15:01.394Z,92.79
2023-10-10T10:17:55.951Z,92.81
2023-10-10T10:20:47.158Z,92.87
2023-10-10T10:23:27.919Z,92.42
2023-10-10T10:26:05.763Z,92.87
2023-10-10T10:28:39.197Z,92.53
2023-10-10T10:31:07.171Z,91.89
2023-10-10T10:33:35.043Z,92.07
2023-10-10T10:36:16.395Z,91.58
2023-10-10T10:39:05.033Z,91.77
2023-10-10T10:41:44.464Z,91.30
2023-10-10T10:44:14.247Z,90.77
2023-10-10T10:46:42.700Z,90.20
2023-10-10T10:49:13.761Z,89.95
2023-10-10T10:51:48.734Z,89.91
2023-10-10T10:54:39.289Z,89.49
2023-10-10T10:57:06.330Z,88.62
2023-10-10T10:59:46.721Z,87.46
2023-10-10T11:02:17.927Z,87.75
2023-10-10T11:04:51.813Z,87.16
2023-10-10T11:07:30.341Z,87.43
2023-10-10T11:10:17.585Z,87.23
2023-10-10T11:12:46.012Z,86.80
2023-10-10T11:15:13.107Z,86.58
2023-10-10T11:17:41.351Z,86.34
2023-10-10T11:20:27.805Z,86.42
2023-10-10T11:23:08.980Z,86.04
2023-10-10T11:25:48.278Z,86.27
2023-10-10T11:28:23.459Z,85.99
2023-10-10T11:30:52.353Z,86.09
2023-10-10T11:33:52.105Z,85.26
2023-10-10T11:36:41.130Z,85.21
2023-10-10T11:39:33.482Z,85.17
2023-10-10T11:42:05.838Z,85.15
2023-10-10T11:44:35.034Z,85.28
2023-10-10T11:47:08.724Z,85.18
2023-10-10T11:49:36.793Z,84.72
2023-10-10T11:52:05.276Z,84.47
2023-10-10T11:54:32.141Z,84.60
2023-10-10T11:57:01.122Z,84.39
2023-10-10T11:59:28.233Z,84.47
2023-10-10T12:02:15.518Z,83.31
2023-10-10T12:04:46.250Z,83.29
2023-10-10T12:07:15.713Z,83.14
2023-10-10T12:09:46.501Z,84.23
2023-10-10T12:12:14.534Z,84.16
2023-10-10T12:14:44.065Z,84.09
2023-10-10T12:17:12.003Z,83.07
2023-10-10T12:19:38.976Z,83.50
2023-10-10T12:22:10.220Z,83.63
2023-10-10T12:24:37.226Z,83.71
2023-10-10T12:27:08.505Z,83.82
2023-10-10T12:29:42.819Z,82.96
2023-10-10T12:32:17.470Z,82.48
2023-10-10T12:34:44.838Z,82.65
2023-10-10T12:37:12.064Z,81.99
2023-10-10T12:39:39.558Z,82.08
2023-10-10T12:42:08.984Z,81.78
2023-10-10T12:44:36.369Z,81.84
2023-10-10T12:47:07.953Z,81.51
2023-10-10T12:49:38.071Z,81.29
2023-10-10T12:52:13.663Z,80.94
2023-10-10T12:54:43.251Z,80.60
2023-10-10T12:57:15.505Z,80.71
2023-10-10T12:59:48.056Z,81.17
2023-10-10T13:02:17.301Z,81.29
2023-10-10T13:04:48.543Z,81.17
2023-10-10T13:07:17.855Z,80.99
2023-10-10T13:09:47.971Z,81.13
2023-10-10T13:12:29.079Z,81.07
2023-10-10T13:15:12.615Z,81.23
2023-10-10T13:17:51.732Z,81.63
2023-10-10T13:20:20.076Z,82.12
2023-10-10T13:22:51.978Z,82.40
2023-10-10T13:25:20.560Z,82.88
2023-10-10T13:27:47.785Z,83.23
2023-10-10T13:30:15.173Z,83.41
2023-10-10T13:32:43.128Z,83.96
2023-10-10T13:35:10.702Z,84.36
2023-10-10T13:37:42.450Z,85.02
2023-10-10T13:40:11.206Z,85.62
2023-10-10T13:42:41.869Z,85.91
2023-10-10T13:45:13.571Z,86.36
2023-10-10T13:47:42.053Z,86.25
2023-10-10T13:50:29.883Z,86.14
2023-10-10T13:52:57.093Z,86.83
2023-10-10T13:55:24.636Z,86.54
2023-10-10T13:57:51.554Z,86.69
2023-10-10T14:00:31.165Z,86.69
2023-10-10T14:03:07.501Z,86.07
2023-10-10T14:05:39.324Z,86.64
2023-10-10T14:08:19.325Z,86.75
2023-10-10T14:10:51.720Z,86.59
2023-10-10T14:13:23.027Z,87.20
2023-10-10T14:15:59.191Z,87.09
2023-10-10T14:18:31.333Z,86.60
2023-10-10T14:21:08.704Z,86.98
2023-10-10T14:23:40.686Z,86.83
2023-10-10T14:26:15.084Z,87.07
2023-10-10T14:28:43.311Z,87.18
2023-10-10T14:31:14.079Z,87.69
2023-10-10T14:33:42.065Z,87.32
2023-10-10T14:36:15.597Z,88.00
2023-10-10T14:38:46.310Z,88.28
2023-10-10T14:41:21.358Z,88.14
2023-10-10T14:43:53.638Z,88.10
2023-10-10T14:46:24.087Z,87.94
2023-10-10T14:49:07.644Z,89.00
2023-10-10T14:51:36.350Z,88.26
2023-10-10T14:54:13.482Z,88.40
2023-10-10T14:56:47.804Z,88.57
2023-10-10T14:59:20.264Z,88.02
2023-10-10T15:01:50.817Z,88.24
2023-10-10T15:04:22.970Z,88.05
2023-10-10T15:06:55.828Z,88.17
2023-10-10T15:09:27.021Z,87.31
2023-10-10T15:11:59.878Z,87.65
2023-10-10T15:14:27.339Z,88.26
2023-10-10T15:16:55.154Z,88.00
2023-10-10T15:19:22.174Z,87.99
2023-10-10T15:21:49.888Z,87.98
2023-10-10T15:24:17.277Z,88.24
2023-10-10T15:26:49.774Z,88.07
2023-10-10T15:29:18.207Z,87.79
2023-10-10T15:31:46.512Z,87.52
2023-10-10T15:34:17.787Z,87.82
2023-10-10T15:36:47.942Z,88.18
2023-10-10T15:39:17.517Z,88.46
2023-10-10T15:41:46.203Z,88.23
2023-10-10T15:44:17.164Z,87.51
2023-10-10T15:46:45.253Z,87.58
2023-10-10T15:51:46.309Z,87.96
2023-10-10T15:54:16.389Z,87.72
2023-10-10T15:56:44.181Z,87.63
2023-10-10T15:59:11.637Z,88.15
2023-10-10T16:01:38.849Z,87.79
2023-10-10T16:04:13.961Z,88.28
2023-10-10T16:06:48.968Z,87.92
2023-10-10T16:09:22.569Z,88.43
2023-10-10T16:11:58.331Z,87.96
2023-10-10T16:14:26.929Z,88.16
2023-10-10T16:16:54.441Z,88.58
2023-10-10T16:19:25.993Z,88.36
2023-10-10T16:21:54.726Z,88.43
2023-10-10T16:24:21.835Z,89.11
2023-10-10T16:27:00.536Z,88.82
2023-10-10T16:29:34.940Z,88.00
2023-10-10T16:32:09.930Z,88.97
2023-10-10T16:34:42.649Z,88.90
2023-10-10T16:37:15.552Z,88.51
2023-10-10T16:39:47.100Z,88.61
2023-10-10T16:42:16.509Z,88.58
2023-10-10T16:44:46.247Z,88.49
2023-10-10T16:47:18.573Z,89.01
2023-10-10T16:49:46.265Z,88.80
2023-10-10T16:52:13.216Z,88.62
2023-10-10T16:54:42.083Z,88.75
2023-10-10T16:57:12.460Z,89.37
2023-10-10T16:59:39.786Z,88.74
2023-10-10T17:02:07.133Z,89.12
2023-10-10T17:04:34.907Z,88.95
2023-10-10T17:07:01.664Z,89.10
2023-10-10T17:09:29.859Z,89.35
2023-10-10T17:12:04.445Z,89.33
2023-10-10T17:14:32.333Z,89.05
2023-10-10T17:16:59.235Z,89.14
2023-10-10T17:19:26.243Z,89.32
2023-10-10T17:21:53.492Z,89.25
2023-10-10T17:24:21.324Z,89.08
2023-10-10T17:26:48.739Z,89.11
2023-10-10T17:29:17.624Z,89.64
2023-10-10T17:31:44.706Z,89.85
2023-10-10T17:34:17.291Z,89.06
2023-10-10T17:36:44.718Z,89.54
2023-10-10T17:39:16.906Z,89.16
2023-10-10T17:41:49.371Z,89.59
2023-10-10T17:44:19.532Z,89.53
2023-10-10T17:46:48.336Z,89.52
2023-10-10T17:49:16.383Z,89.37
2023-10-10T17:51:46.198Z,89.12
2023-10-10T17:54:17.612Z,89.29
2023-10-10T17:56:46.050Z,89.57
2023-10-10T17:59:13.390Z,89.36
2023-10-10T18:01:40.341Z,88.96
2023-10-10T18:04:08.604Z,89.20
2023-10-10T18:06:36.406Z,89.48
2023-10-10T18:09:09.888Z,89.58
2023-10-10T18:11:38.246Z,89.74
2023-10-10T18:14:08.580Z,89.80
2023-10-10T18:16:38.722Z,89.28
2023-10-10T18:19:07.124Z,88.84
2023-10-10T18:21:34.592Z,89.29
2023-10-10T18:24:07.600Z,89.12
2023-10-10T18:26:39.177Z,88.93
2023-10-10T18:29:06.852Z,88.65
2023-10-10T18:31:35.982Z,88.81
2023-10-10T18:34:06.436Z,88.58
2023-10-10T18:36:38.483Z,88.03
2023-10-10T18:39:13.209Z,87.93
2023-10-10T18:41:44.163Z,88.33
2023-10-10T18:44:12.316Z,88.41
2023-10-10T18:46:39.610Z,88.16
2023-10-10T18:49:07.241Z,87.74
2023-10-10T18:51:34.268Z,87.71
2023-10-10T18:54:01.539Z,88.06
2023-10-10T18:56:28.717Z,86.99
2023-10-10T18:58:55.657Z,87.17
2023-10-10T19:01:23.470Z,87.43
2023-10-10T19:03:50.882Z,86.68
2023-10-10T19:06:21.709Z,87.08
2023-10-10T19:08:49.952Z,86.73
2023-10-10T19:11:24.897Z,86.84
2023-10-10T19:13:52.103Z,86.76
2023-10-10T19:16:19.870Z,86.61
2023-10-10T19:18:47.717Z,86.36
2023-10-10T19:21:17.177Z,85.86
2023-10-10T19:23:51.584Z,86.04
2023-10-10T19:26:19.211Z,86.19
2023-10-10T19:28:54.510Z,86.09
2023-10-10T19:31:24.241Z,85.58
2023-10-10T19:33:51.827Z,85.76
2023-10-10T19:36:21.546Z,85.27
2023-10-10T19:38:49.130Z,85.81
2023-10-10T19:41:16.296Z,85.69
2023-10-10T19:43:43.333Z,85.49
2023-10-10T19:46:13.661Z,85.16
2023-10-10T19:48:42.301Z,84.78
2023-10-10T19:51:19.610Z,85.03
2023-10-10T19:53:51.563Z,84.78
2023-10-10T19:56:19.035Z,84.88
2023-10-10T19:58:50.072Z,85.08
2023-10-10T20:01:17.566Z,85.15
2023-10-10T20:03:47.276Z,85.06
2023-10-10T20:06:22.049Z,85.21
2023-10-10T20:08:55.616Z,84.12
2023-10-10T20:11:25.649Z,84.79
2023-10-10T20:13:53.150Z,84.71
2023-10-10T20:16:22.062Z,84.54
2023-10-10T20:18:54.162Z,84.17
2023-10-10T20:21:21.191Z,84.20
2023-10-10T20:23:48.629Z,84.34
2023-10-10T20:26:19.560Z,84.17
2023-10-10T20:28:48.925Z,83.99
2023-10-10T20:31:19.027Z,83.51
2023-10-10T20:33:48.838Z,83.80
2023-10-10T20:36:16.941Z,83.63
2023-10-10T20:38:44.698Z,83.50
2023-10-10T20:41:13.090Z,83.76
2023-10-10T20:43:41.743Z,83.53
2023-10-10T20:46:08.933Z,83.59
2023-10-10T20:48:35.907Z,83.54
2023-10-10T20:51:04.550Z,83.51
2023-10-10T20:53:32.105Z,83.63
2023-10-10T20:55:59.211Z,83.61
2023-10-10T20:58:26.093Z,82.93
2023-10-10T21:00:52.957Z,83.32
2023-10-10T21:03:20.200Z,83.62
2023-10-10T21:05:48.877Z,83.34
2023-10-10T21:08:28.705Z,83.27
2023-10-10T21:10:55.714Z,83.54
2023-10-10T21:13:23.066Z,83.57
2023-10-10T21:15:50.772Z,83.46
2023-10-10T21:18:19.968Z,83.33
2023-10-10T21:21:00.243Z,83.33
2023-10-10T21:23:30.105Z,83.35
2023-10-10T21:25:56.993Z,83.25
2023-10-10T21:28:24.219Z,83.52
2023-10-10T21:30:51.181Z,83.60
2023-10-10T21:33:18.630Z,83.48
2023-10-10T21:35:45.843Z,83.63
2023-10-10T21:38:12.858Z,83.45
2023-10-10T21:40:41.413Z,83.59
2023-10-10T21:43:11.640Z,83.33
2023-10-10T21:45:40.409Z,83.58
2023-10-10T21:48:11.653Z,83.40
2023-10-10T21:50:42.100Z,83.97
2023-10-10T21:53:09.389Z,83.53
2023-10-10T21:55:38.868Z,83.22
2023-10-10T21:58:15.049Z,83.39
2023-10-10T22:00:42.124Z,83.56
2023-10-10T22:03:09.240Z,83.41
2023-10-10T22:05:38.687Z,83.62
2023-10-10T22:08:07.849Z,83.89
2023-10-10T22:10:36.959Z,83.49
2023-10-10T22:13:07.533Z,83.33
2023-10-10T22:15:36.631Z,83.53
2023-10-10T22:18:08.016Z,83.62
2023-10-10T22:20:35.572Z,83.65
2023-10-10T22:23:02.720Z,83.55
2023-10-10T22:25:33.399Z,83.36
2023-10-10T22:28:01.641Z,83.57
2023-10-10T22:30:34.017Z,84.18
2023-10-10T22:33:01.460Z,83.91
2023-10-10T22:35:30.343Z,83.43
2023-10-10T22:37:57.650Z,83.89
2023-10-10T22:40:28.383Z,84.08
2023-10-10T22:43:04.940Z,84.45
2023-10-10T22:45:34.633Z,83.97
2023-10-10T22:48:04.796Z,84.10
2023-10-10T22:50:32.348Z,84.35
2023-10-10T22:53:02.499Z,84.14
2023-10-10T22:55:34.840Z,84.22
2023-10-10T22:58:07.960Z,84.71
2023-10-10T23:00:40.039Z,84.44
2023-10-10T23:03:12.336Z,84.01
2023-10-10T23:05:40.944Z,83.97
2023-10-10T23:08:08.237Z,84.11
2023-10-10T23:10:35.859Z,84.19
2023-10-10T23:13:03.583Z,84.45
2023-10-10T23:15:30.800Z,84.66
2023-10-10T23:18:00.582Z,84.68
2023-10-10T23:20:28.948Z,84.40
2023-10-10T23:23:04.272Z,84.13
2023-10-10T23:25:32.887Z,84.26
2023-10-10T23:28:00.342Z,84.03
2023-10-10T23:30:28.977Z,84.41
2023-10-10T23:33:20.670Z,84.17
2023-10-10T23:35:50.095Z,84.16
2023-10-10T23:38:20.938Z,84.20
2023-10-10T23:40:47.996Z,84.11
2023-10-10T23:43:20.479Z,83.89
2023-10-10T23:45:55.975Z,83.97
2023-10-10T23:48:30.592Z,83.71
2023-10-10T23:50:58.313Z,83.86
2023-10-10T23:53:25.832Z,83.88
2023-10-10T23:55:56.529Z,83.50
2023-10-10T23:58:26.811Z,84.17
